This is the latest recevied weather packets stored in our database for station/object KC8UZG. If no packets are shown the sender has not sent any weather packets the latest 10 day(s).
| Time | Temp. | Humidity | Pressure | Rain* | Wind** | Luminosity | Snow |
|---|---|---|---|---|---|---|---|
| 1778015127 | 15° C | 99% | 1007 hPa | 1.02 mm | - | 14 W/m² | - |
| 1778014532 | 15° C | 99% | 1007 hPa | 1.52 mm | - | 25 W/m² | - |
| 1778013938 | 15° C | 99% | 1007.3 hPa | 2.54 mm | - | 28 W/m² | - |
| 1778013318 | 15° C | 99% | 1007.3 hPa | 3.3 mm | - | 22 W/m² | - |
| 1778012724 | 15° C | 99% | 1007.6 hPa | 3.05 mm | - | 43 W/m² | - |
| 1778012130 | 15° C | 99% | 1007.4 hPa | 2.54 mm | - | 40 W/m² | - |
| 1778011536 | 15° C | 99% | 1007.6 hPa | 2.29 mm | - | 29 W/m² | - |
| 1778010941 | 15.56° C | 99% | 1007.6 hPa | 1.78 mm | - | 25 W/m² | - |
| 1778010320 | 16.11° C | 95% | 1007.6 hPa | 0.76 mm | - | 26 W/m² | - |
| 1778009727 | 17.78° C | 86% | 1007.3 hPa | 0 mm | - | 17 W/m² | - |
| 1778009132 | 18.33° C | 83% | - | 0 mm | - | 41 W/m² | - |
| 1778008539 | 18.33° C | 82% | - | 0 mm | - | 74 W/m² | - |
| 1778007919 | 18.33° C | 81% | 1007.6 hPa | 0 mm | - | 45 W/m² | - |
| 1778007323 | 18.33° C | 82% | 1007.6 hPa | 0 mm | - | 78 W/m² | - |
| 1778006729 | 18.89° C | 83% | - | 0 mm | - | 65 W/m² | - |
| 1778006135 | 18.89° C | 83% | 1008 hPa | 0 mm | - | 81 W/m² | - |
| 1778005541 | 18.33° C | 83% | 1008 hPa | 0 mm | - | 89 W/m² | - |
| 1778004920 | 18.33° C | 84% | 1008 hPa | 0 mm | - | 76 W/m² | - |
| 1778004327 | 18.33° C | 84% | 1008 hPa | 0 mm | - | 57 W/m² | - |
| 1778003732 | 18.33° C | 83% | 1008 hPa | 0 mm | - | 82 W/m² | - |
| 1778003138 | 18.33° C | 83% | - | 0 mm | - | 98 W/m² | - |
| 1778002517 | 17.78° C | 83% | - | 0 mm | - | 60 W/m² | - |
| 1778001923 | 18.33° C | 81% | - | 0 mm | - | 48 W/m² | - |
| 1778001329 | 18.89° C | 80% | 1008 hPa | 0 mm | - | 58 W/m² | - |
| 1778000735 | 18.89° C | 80% | 1008.2 hPa | 0 mm | - | 116 W/m² | - |
* Rain latest hour (hover to see other rain measurements)
** Current wind speed in m/s (hover to see current wind gust speed)